sensor_id;sensor_type;location;lat;lon;timestamp;pressure;altitude;pressure_sealevel;temperature;humidity
5996;BME280;3026;53.612;7.278;2022-11-30T00:00:34;102143.53;;;6.47;100.00
5996;BME280;3026;53.612;7.278;2022-11-30T00:03:02;102137.50;;;6.43;100.00
5996;BME280;3026;53.612;7.278;2022-11-30T00:05:30;102138.59;;;6.40;100.00
5996;BME280;3026;53.612;7.278;2022-11-30T00:07:59;102142.28;;;6.39;100.00
5996;BME280;3026;53.612;7.278;2022-11-30T00:10:26;102144.00;;;6.40;100.00
5996;BME280;3026;53.612;7.278;2022-11-30T00:12:53;102147.69;;;6.39;100.00
5996;BME280;3026;53.612;7.278;2022-11-30T00:15:20;102140.56;;;6.38;100.00
5996;BME280;3026;53.612;7.278;2022-11-30T00:17:47;102139.69;;;6.38;100.00
5996;BME280;3026;53.612;7.278;2022-11-30T00:20:14;102153.31;;;6.36;100.00
5996;BME280;3026;53.612;7.278;2022-11-30T00:22:43;102149.88;;;6.34;100.00
5996;BME280;3026;53.612;7.278;2022-11-30T00:25:10;102149.88;;;6.34;100.00
5996;BME280;3026;53.612;7.278;2022-11-30T00:27:37;102147.03;;;6.36;100.00
5996;BME280;3026;53.612;7.278;2022-11-30T00:30:05;102147.03;;;6.36;100.00
5996;BME280;3026;53.612;7.278;2022-11-30T00:32:32;102150.72;;;6.35;100.00
5996;BME280;3026;53.612;7.278;2022-11-30T00:34:59;102139.25;;;6.31;100.00
5996;BME280;3026;53.612;7.278;2022-11-30T00:37:26;102157.88;;;6.36;100.00
5996;BME280;3026;53.612;7.278;2022-11-30T00:39:54;102154.41;;;6.34;100.00
5996;BME280;3026;53.612;7.278;2022-11-30T00:42:21;102152.06;;;6.29;100.00
5996;BME280;3026;53.612;7.278;2022-11-30T00:44:49;102156.50;;;6.30;100.00
5996;BME280;3026;53.612;7.278;2022-11-30T00:47:15;102151.09;;;6.30;100.00
5996;BME280;3026;53.612;7.278;2022-11-30T00:49:43;102154.03;;;6.27;100.00
5996;BME280;3026;53.612;7.278;2022-11-30T00:52:10;102150.56;;;6.25;100.00
5996;BME280;3026;53.612;7.278;2022-11-30T00:54:37;102162.16;;;6.27;100.00
5996;BME280;3026;53.612;7.278;2022-11-30T00:57:05;102160.41;;;6.26;100.00
5996;BME280;3026;53.612;7.278;2022-11-30T00:59:32;102154.03;;;6.27;100.00
5996;BME280;3026;53.612;7.278;2022-11-30T01:02:00;102163.13;;;6.26;100.00
5996;BME280;3026;53.612;7.278;2022-11-30T01:04:27;102168.56;;;6.26;100.00
5996;BME280;3026;53.612;7.278;2022-11-30T01:06:53;102166.69;;;6.27;100.00
5996;BME280;3026;53.612;7.278;2022-11-30T01:09:20;102161.41;;;6.25;100.00
5996;BME280;3026;53.612;7.278;2022-11-30T01:11:47;102156.19;;;6.22;100.00
5996;BME280;3026;53.612;7.278;2022-11-30T01:14:16;102162.34;;;6.24;100.00
5996;BME280;3026;53.612;7.278;2022-11-30T01:16:43;102168.56;;;6.26;100.00
5996;BME280;3026;53.612;7.278;2022-11-30T01:19:10;102164.88;;;6.27;100.00
5996;BME280;3026;53.612;7.278;2022-11-30T01:21:37;102168.56;;;6.26;100.00
5996;BME280;3026;53.612;7.278;2022-11-30T01:24:04;102158.69;;;6.25;100.00
5996;BME280;3026;53.612;7.278;2022-11-30T01:26:32;102169.28;;;6.28;100.00
5996;BME280;3026;53.612;7.278;2022-11-30T01:29:00;102167.44;;;6.29;100.00
5996;BME280;3026;53.612;7.278;2022-11-30T01:31:29;102165.84;;;6.26;100.00
5996;BME280;3026;53.612;7.278;2022-11-30T01:33:56;102180.13;;;6.28;100.00
5996;BME280;3026;53.612;7.278;2022-11-30T01:36:24;102170.28;;;6.27;100.00
5996;BME280;3026;53.612;7.278;2022-11-30T01:38:53;102179.38;;;6.26;100.00
5996;BME280;3026;53.612;7.278;2022-11-30T01:41:23;102185.00;;;6.23;100.00
5996;BME280;3026;53.612;7.278;2022-11-30T01:43:52;102182.28;;;6.23;100.00
5996;BME280;3026;53.612;7.278;2022-11-30T01:46:26;102177.84;;;6.22;100.00
5996;BME280;3026;53.612;7.278;2022-11-30T01:48:59;102179.81;;;6.20;100.00
5996;BME280;3026;53.612;7.278;2022-11-30T01:51:31;102170.94;;;6.18;100.00
5996;BME280;3026;53.612;7.278;2022-11-30T01:54:01;102182.63;;;6.19;100.00
5996;BME280;3026;53.612;7.278;2022-11-30T01:56:29;102183.50;;;6.19;100.00
5996;BME280;3026;53.612;7.278;2022-11-30T01:58:56;102188.06;;;6.19;100.00
5996;BME280;3026;53.612;7.278;2022-11-30T02:01:24;102189.91;;;6.18;100.00
5996;BME280;3026;53.612;7.278;2022-11-30T02:03:57;102183.75;;;6.16;100.00
5996;BME280;3026;53.612;7.278;2022-11-30T02:06:25;102190.88;;;6.17;100.00
5996;BME280;3026;53.612;7.278;2022-11-30T02:08:52;102190.88;;;6.17;100.00
5996;BME280;3026;53.612;7.278;2022-11-30T02:11:20;102189.16;;;6.16;100.00
5996;BME280;3026;53.612;7.278;2022-11-30T02:14:01;102202.56;;;6.18;100.00
5996;BME280;3026;53.612;7.278;2022-11-30T02:16:38;102190.13;;;6.15;100.00
5996;BME280;3026;53.612;7.278;2022-11-30T02:19:36;102187.44;;;6.15;100.00
5996;BME280;3026;53.612;7.278;2022-11-30T02:22:22;102196.28;;;6.17;100.00
5996;BME280;3026;53.612;7.278;2022-11-30T02:24:58;102190.88;;;6.17;100.00
5996;BME280;3026;53.612;7.278;2022-11-30T02:27:41;102193.72;;;6.16;100.00
5996;BME280;3026;53.612;7.278;2022-11-30T02:30:13;102189.16;;;6.16;100.00
5996;BME280;3026;53.612;7.278;2022-11-30T02:32:45;102193.72;;;6.16;100.00
5996;BME280;3026;53.612;7.278;2022-11-30T02:35:16;102188.41;;;6.14;100.00
5996;BME280;3026;53.612;7.278;2022-11-30T02:37:45;102188.28;;;6.16;100.00
5996;BME280;3026;53.612;7.278;2022-11-30T02:40:14;102184.72;;;6.15;100.00
5996;BME280;3026;53.612;7.278;2022-11-30T02:42:43;102194.75;;;6.13;100.00
5996;BME280;3026;53.612;7.278;2022-11-30T02:45:10;102184.81;;;6.13;100.00
5996;BME280;3026;53.612;7.278;2022-11-30T02:47:42;102183.94;;;6.13;100.00
5996;BME280;3026;53.612;7.278;2022-11-30T02:50:14;102185.69;;;6.14;100.00
5996;BME280;3026;53.612;7.278;2022-11-30T02:52:41;102194.69;;;6.14;100.00
5996;BME280;3026;53.612;7.278;2022-11-30T02:55:12;102187.44;;;6.15;100.00
5996;BME280;3026;53.612;7.278;2022-11-30T02:57:40;102194.56;;;6.16;100.00
5996;BME280;3026;53.612;7.278;2022-11-30T03:00:09;102192.59;;;6.18;100.00
5996;BME280;3026;53.612;7.278;2022-11-30T03:02:36;102188.91;;;6.19;100.00
5996;BME280;3026;53.612;7.278;2022-11-30T03:05:05;102190.66;;;6.20;100.00
5996;BME280;3026;53.612;7.278;2022-11-30T03:07:32;102198.03;;;6.18;100.00
5996;BME280;3026;53.612;7.278;2022-11-30T03:09:59;102198.03;;;6.18;100.00
5996;BME280;3026;53.612;7.278;2022-11-30T03:12:26;102206.16;;;6.18;100.00
5996;BME280;3026;53.612;7.278;2022-11-30T03:14:53;102205.19;;;6.19;100.00
5996;BME280;3026;53.612;7.278;2022-11-30T03:17:20;102197.03;;;6.19;100.00
5996;BME280;3026;53.612;7.278;2022-11-30T03:19:47;102192.84;;;6.15;100.00
5996;BME280;3026;53.612;7.278;2022-11-30T03:22:15;102191.88;;;6.16;100.00
5996;BME280;3026;53.612;7.278;2022-11-30T03:24:42;102193.72;;;6.16;100.00
5996;BME280;3026;53.612;7.278;2022-11-30T03:27:09;102196.53;;;6.14;100.00
5996;BME280;3026;53.612;7.278;2022-11-30T03:29:36;102194.56;;;6.16;100.00
5996;BME280;3026;53.612;7.278;2022-11-30T03:32:04;102199.13;;;6.16;100.00
5996;BME280;3026;53.612;7.278;2022-11-30T03:34:30;102199.31;;;6.12;100.00
5996;BME280;3026;53.612;7.278;2022-11-30T03:36:58;102200.97;;;6.15;100.00
5996;BME280;3026;53.612;7.278;2022-11-30T03:39:26;102198.25;;;6.15;100.00
5996;BME280;3026;53.612;7.278;2022-11-30T03:41:53;102209.09;;;6.15;100.00
5996;BME280;3026;53.612;7.278;2022-11-30T03:44:20;102200.31;;;6.11;100.00
5996;BME280;3026;53.612;7.278;2022-11-30T03:46:47;102205.59;;;6.13;100.00
5996;BME280;3026;53.612;7.278;2022-11-30T03:49:14;102206.47;;;6.13;100.00
5996;BME280;3026;53.612;7.278;2022-11-30T03:51:41;102211.00;;;6.13;100.00
5996;BME280;3026;53.612;7.278;2022-11-30T03:54:08;102212.88;;;6.12;100.00
5996;BME280;3026;53.612;7.278;2022-11-30T03:56:36;102211.00;;;6.13;100.00
5996;BME280;3026;53.612;7.278;2022-11-30T03:59:03;102214.72;;;6.12;100.00
5996;BME280;3026;53.612;7.278;2022-11-30T04:01:29;102216.66;;;6.10;100.00
5996;BME280;3026;53.612;7.278;2022-11-30T04:03:57;102208.78;;;6.07;100.00
5996;BME280;3026;53.612;7.278;2022-11-30T04:06:24;102216.44;;;6.13;100.00
5996;BME280;3026;53.612;7.278;2022-11-30T04:08:51;102224.56;;;6.13;100.00
5996;BME280;3026;53.612;7.278;2022-11-30T04:11:18;102227.28;;;6.13;100.00
5996;BME280;3026;53.612;7.278;2022-11-30T04:13:47;102223.63;;;6.14;100.00
5996;BME280;3026;53.612;7.278;2022-11-30T04:16:13;102227.28;;;6.13;100.00
5996;BME280;3026;53.612;7.278;2022-11-30T04:18:40;102215.56;;;6.12;100.00
5996;BME280;3026;53.612;7.278;2022-11-30T04:21:08;102226.22;;;6.16;100.00
5996;BME280;3026;53.612;7.278;2022-11-30T04:23:37;102228.06;;;6.15;100.00
5996;BME280;3026;53.612;7.278;2022-11-30T04:26:05;102236.19;;;6.15;100.00
5996;BME280;3026;53.612;7.278;2022-11-30T04:28:32;102231.81;;;6.12;100.00
5996;BME280;3026;53.612;7.278;2022-11-30T04:31:01;102245.06;;;6.17;100.00
5996;BME280;3026;53.612;7.278;2022-11-30T04:33:29;102232.69;;;6.13;100.00
5996;BME280;3026;53.612;7.278;2022-11-30T04:35:57;102245.06;;;6.17;100.00
5996;BME280;3026;53.612;7.278;2022-11-30T04:38:25;102245.06;;;6.17;100.00
5996;BME280;3026;53.612;7.278;2022-11-30T04:40:54;102245.06;;;6.17;100.00
5996;BME280;3026;53.612;7.278;2022-11-30T04:43:22;102237.03;;;6.16;100.00
5996;BME280;3026;53.612;7.278;2022-11-30T04:45:49;102245.81;;;6.19;100.00
5996;BME280;3026;53.612;7.278;2022-11-30T04:48:18;102246.78;;;6.18;100.00
5996;BME280;3026;53.612;7.278;2022-11-30T04:50:45;102243.31;;;6.16;100.00
5996;BME280;3026;53.612;7.278;2022-11-30T04:53:12;102245.06;;;6.17;100.00
5996;BME280;3026;53.612;7.278;2022-11-30T04:55:39;102234.34;;;6.16;100.00
5996;BME280;3026;53.612;7.278;2022-11-30T04:58:06;102235.94;;;6.18;100.00
5996;BME280;3026;53.612;7.278;2022-11-30T05:00:34;102240.50;;;6.18;100.00
5996;BME280;3026;53.612;7.278;2022-11-30T05:03:01;102242.34;;;6.17;100.00
5996;BME280;3026;53.612;7.278;2022-11-30T05:05:29;102249.50;;;6.18;100.00
5996;BME280;3026;53.612;7.278;2022-11-30T05:07:57;102250.25;;;6.20;100.00
5996;BME280;3026;53.612;7.278;2022-11-30T05:10:25;102248.28;;;6.22;100.00
5996;BME280;3026;53.612;7.278;2022-11-30T05:12:52;102255.44;;;6.23;100.00
5996;BME280;3026;53.612;7.278;2022-11-30T05:15:20;102244.59;;;6.23;100.00
5996;BME280;3026;53.612;7.278;2022-11-30T05:17:47;102257.16;;;6.24;100.00
5996;BME280;3026;53.612;7.278;2022-11-30T05:20:14;102266.25;;;6.23;100.00
5996;BME280;3026;53.612;7.278;2022-11-30T05:22:43;102258.25;;;6.22;100.00
5996;BME280;3026;53.612;7.278;2022-11-30T05:25:10;102259.13;;;6.22;100.00
5996;BME280;3026;53.612;7.278;2022-11-30T05:27:36;102262.81;;;6.21;100.00
5996;BME280;3026;53.612;7.278;2022-11-30T05:30:05;102268.34;;;6.20;100.00
5996;BME280;3026;53.612;7.278;2022-11-30T05:32:32;102265.50;;;6.21;100.00
5996;BME280;3026;53.612;7.278;2022-11-30T05:34:59;102268.22;;;6.21;100.00
5996;BME280;3026;53.612;7.278;2022-11-30T05:37:26;102267.34;;;6.21;100.00
5996;BME280;3026;53.612;7.278;2022-11-30T05:39:55;102272.13;;;6.17;100.00
5996;BME280;3026;53.612;7.278;2022-11-30T05:42:21;102279.50;;;6.15;100.00
5996;BME280;3026;53.612;7.278;2022-11-30T05:44:49;102276.88;;;6.13;100.00
5996;BME280;3026;53.612;7.278;2022-11-30T05:47:15;102281.25;;;6.16;100.00
5996;BME280;3026;53.612;7.278;2022-11-30T05:49:42;102275.16;;;6.12;100.00
5996;BME280;3026;53.612;7.278;2022-11-30T05:52:09;102282.22;;;6.15;100.00
5996;BME280;3026;53.612;7.278;2022-11-30T05:54:36;102280.25;;;6.17;100.00
5996;BME280;3026;53.612;7.278;2022-11-30T05:57:04;102280.25;;;6.17;100.00
5996;BME280;3026;53.612;7.278;2022-11-30T05:59:31;102276.69;;;6.17;100.00
5996;BME280;3026;53.612;7.278;2022-11-30T06:01:59;102285.13;;;6.12;100.00
5996;BME280;3026;53.612;7.278;2022-11-30T06:04:26;102287.53;;;6.17;100.00
5996;BME280;3026;53.612;7.278;2022-11-30T06:06:52;102284.94;;;6.15;100.00
5996;BME280;3026;53.612;7.278;2022-11-30T06:09:20;102280.50;;;6.14;100.00
5996;BME280;3026;53.612;7.278;2022-11-30T06:11:47;102283.19;;;6.14;100.00
5996;BME280;3026;53.612;7.278;2022-11-30T06:14:15;102288.63;;;6.14;100.00
5996;BME280;3026;53.612;7.278;2022-11-30T06:16:42;102292.25;;;6.13;100.00
5996;BME280;3026;53.612;7.278;2022-11-30T06:19:09;102295.94;;;6.12;100.00
5996;BME280;3026;53.612;7.278;2022-11-30T06:21:36;102290.53;;;6.12;100.00
5996;BME280;3026;53.612;7.278;2022-11-30T06:24:03;102285.13;;;6.12;100.00
5996;BME280;3026;53.612;7.278;2022-11-30T06:26:30;102277.09;;;6.10;100.00
5996;BME280;3026;53.612;7.278;2022-11-30T06:28:57;102284.38;;;6.10;100.00
5996;BME280;3026;53.612;7.278;2022-11-30T06:31:25;102294.44;;;6.08;100.00
5996;BME280;3026;53.612;7.278;2022-11-30T06:33:55;102293.47;;;6.09;100.00
5996;BME280;3026;53.612;7.278;2022-11-30T06:36:22;102295.44;;;6.07;100.00
5996;BME280;3026;53.612;7.278;2022-11-30T06:38:49;102299.88;;;6.08;100.00
5996;BME280;3026;53.612;7.278;2022-11-30T06:41:16;102303.56;;;6.07;100.00
5996;BME280;3026;53.612;7.278;2022-11-30T06:43:43;102300.94;;;6.05;100.00
5996;BME280;3026;53.612;7.278;2022-11-30T06:46:10;102303.56;;;6.07;100.00
5996;BME280;3026;53.612;7.278;2022-11-30T06:48:39;102300.94;;;6.05;100.00
5996;BME280;3026;53.612;7.278;2022-11-30T06:51:07;102300.09;;;6.05;100.00
5996;BME280;3026;53.612;7.278;2022-11-30T06:53:34;102312.66;;;6.06;100.00
5996;BME280;3026;53.612;7.278;2022-11-30T06:56:03;102309.06;;;6.05;100.00
5996;BME280;3026;53.612;7.278;2022-11-30T06:58:30;102302.03;;;6.03;100.00
5996;BME280;3026;53.612;7.278;2022-11-30T07:00:57;102304.84;;;6.01;100.00
5996;BME280;3026;53.612;7.278;2022-11-30T07:03:24;102315.03;;;5.98;100.00
5996;BME280;3026;53.612;7.278;2022-11-30T07:05:52;102319.56;;;5.97;100.00
5996;BME280;3026;53.612;7.278;2022-11-30T07:08:19;102319.69;;;5.96;100.00
5996;BME280;3026;53.612;7.278;2022-11-30T07:10:46;102320.66;;;5.95;100.00
5996;BME280;3026;53.612;7.278;2022-11-30T07:13:15;102324.13;;;5.97;100.00
5996;BME280;3026;53.612;7.278;2022-11-30T07:15:44;102329.53;;;5.97;100.00
5996;BME280;3026;53.612;7.278;2022-11-30T07:18:11;102329.53;;;5.97;100.00
5996;BME280;3026;53.612;7.278;2022-11-30T07:20:38;102334.94;;;5.97;100.00
5996;BME280;3026;53.612;7.278;2022-11-30T07:23:07;102336.69;;;5.98;100.00
5996;BME280;3026;53.612;7.278;2022-11-30T07:25:52;102346.66;;;5.97;100.00
5996;BME280;3026;53.612;7.278;2022-11-30T07:28:35;102347.50;;;5.98;100.00
5996;BME280;3026;53.612;7.278;2022-11-30T07:31:12;102350.31;;;5.96;100.00
5996;BME280;3026;53.612;7.278;2022-11-30T07:33:39;102354.88;;;5.96;100.00
5996;BME280;3026;53.612;7.278;2022-11-30T07:36:07;102345.88;;;5.95;100.00
5996;BME280;3026;53.612;7.278;2022-11-30T07:38:36;102352.16;;;5.96;100.00
5996;BME280;3026;53.612;7.278;2022-11-30T07:41:03;102350.31;;;5.96;100.00
5996;BME280;3026;53.612;7.278;2022-11-30T07:43:31;102351.19;;;5.97;100.00
5996;BME280;3026;53.612;7.278;2022-11-30T07:45:58;102352.94;;;5.98;100.00
5996;BME280;3026;53.612;7.278;2022-11-30T07:48:26;102353.78;;;5.98;100.00
5996;BME280;3026;53.612;7.278;2022-11-30T07:50:53;102351.53;;;5.92;100.00
5996;BME280;3026;53.612;7.278;2022-11-30T07:53:20;102356.59;;;5.97;100.00
5996;BME280;3026;53.612;7.278;2022-11-30T07:55:48;102347.94;;;5.92;100.00
5996;BME280;3026;53.612;7.278;2022-11-30T07:58:15;102364.72;;;5.97;100.00
5996;BME280;3026;53.612;7.278;2022-11-30T08:00:42;102364.19;;;5.92;100.00
5996;BME280;3026;53.612;7.278;2022-11-30T08:03:08;102369.41;;;5.95;100.00
5996;BME280;3026;53.612;7.278;2022-11-30T08:05:35;102374.81;;;5.95;100.00
5996;BME280;3026;53.612;7.278;2022-11-30T08:08:02;102374.91;;;5.93;100.00
5996;BME280;3026;53.612;7.278;2022-11-30T08:10:29;102378.50;;;5.94;100.00
5996;BME280;3026;53.612;7.278;2022-11-30T08:12:57;102377.81;;;5.90;100.00
5996;BME280;3026;53.612;7.278;2022-11-30T08:15:24;102392.03;;;5.94;100.00
5996;BME280;3026;53.612;7.278;2022-11-30T08:17:51;102387.59;;;5.93;100.00
5996;BME280;3026;53.612;7.278;2022-11-30T08:20:20;102394.72;;;5.94;100.00
5996;BME280;3026;53.612;7.278;2022-11-30T08:22:47;102397.22;;;5.97;100.00
5996;BME280;3026;53.612;7.278;2022-11-30T08:25:16;102398.19;;;5.96;100.00
5996;BME280;3026;53.612;7.278;2022-11-30T08:27:43;102401.66;;;5.98;100.00
5996;BME280;3026;53.612;7.278;2022-11-30T08:30:11;102399.72;;;6.00;100.00
5996;BME280;3026;53.612;7.278;2022-11-30T08:32:39;102403.19;;;6.02;100.00
5996;BME280;3026;53.612;7.278;2022-11-30T08:35:06;102404.38;;;5.98;100.00
5996;BME280;3026;53.612;7.278;2022-11-30T08:37:35;102409.50;;;6.02;100.00
5996;BME280;3026;53.612;7.278;2022-11-30T08:40:04;102406.78;;;6.02;100.00
5996;BME280;3026;53.612;7.278;2022-11-30T08:42:32;102414.59;;;6.07;100.00
5996;BME280;3026;53.612;7.278;2022-11-30T08:44:59;102411.00;;;6.06;100.00
5996;BME280;3026;53.612;7.278;2022-11-30T08:47:27;102424.44;;;6.08;100.00
5996;BME280;3026;53.612;7.278;2022-11-30T08:49:55;102424.44;;;6.08;100.00
5996;BME280;3026;53.612;7.278;2022-11-30T08:52:23;102426.16;;;6.09;100.00
5996;BME280;3026;53.612;7.278;2022-11-30T08:54:50;102429.63;;;6.11;100.00
5996;BME280;3026;53.612;7.278;2022-11-30T08:57:19;102424.22;;;6.11;100.00
5996;BME280;3026;53.612;7.278;2022-11-30T08:59:46;102431.47;;;6.10;100.00
5996;BME280;3026;53.612;7.278;2022-11-30T09:02:15;102429.63;;;6.11;100.00
5996;BME280;3026;53.612;7.278;2022-11-30T09:04:44;102435.91;;;6.11;100.00
5996;BME280;3026;53.612;7.278;2022-11-30T09:07:12;102432.34;;;6.11;100.00
5996;BME280;3026;53.612;7.278;2022-11-30T09:09:39;102440.47;;;6.11;100.00
5996;BME280;3026;53.612;7.278;2022-11-30T09:12:06;102442.41;;;6.09;100.00
5996;BME280;3026;53.612;7.278;2022-11-30T09:14:33;102449.56;;;6.10;100.00
5996;BME280;3026;53.612;7.278;2022-11-30T09:17:00;102447.84;;;6.09;100.00
5996;BME280;3026;53.612;7.278;2022-11-30T09:19:27;102449.78;;;6.07;100.00
5996;BME280;3026;53.612;7.278;2022-11-30T09:21:56;102446.97;;;6.08;100.00
5996;BME280;3026;53.612;7.278;2022-11-30T09:24:23;102451.31;;;6.11;100.00
5996;BME280;3026;53.612;7.278;2022-11-30T09:26:54;102453.03;;;6.12;100.00
5996;BME280;3026;53.612;7.278;2022-11-30T09:29:21;102455.75;;;6.12;100.00
5996;BME280;3026;53.612;7.278;2022-11-30T09:31:48;102458.28;;;6.15;100.00
5996;BME280;3026;53.612;7.278;2022-11-30T09:34:15;102454.59;;;6.16;100.00
5996;BME280;3026;53.612;7.278;2022-11-30T09:36:42;102455.34;;;6.18;100.00
5996;BME280;3026;53.612;7.278;2022-11-30T09:39:10;102450.69;;;6.20;100.00
5996;BME280;3026;53.612;7.278;2022-11-30T09:41:50;102454.16;;;6.22;100.00
5996;BME280;3026;53.612;7.278;2022-11-30T09:44:26;102452.31;;;6.23;100.00
5996;BME280;3026;53.612;7.278;2022-11-30T09:47:07;102444.63;;;6.17;100.00
5996;BME280;3026;53.612;7.278;2022-11-30T09:49:41;102456.09;;;6.20;100.00
5996;BME280;3026;53.612;7.278;2022-11-30T09:52:13;102454.38;;;6.19;100.00
5996;BME280;3026;53.612;7.278;2022-11-30T09:54:44;102456.09;;;6.20;100.00
5996;BME280;3026;53.612;7.278;2022-11-30T09:57:22;102449.81;;;6.20;100.00
5996;BME280;3026;53.612;7.278;2022-11-30T09:59:54;102453.28;;;6.22;100.00
5996;BME280;3026;53.612;7.278;2022-11-30T10:02:25;102452.00;;;6.27;100.00
5996;BME280;3026;53.612;7.278;2022-11-30T10:04:53;102459.16;;;6.28;100.00
5996;BME280;3026;53.612;7.278;2022-11-30T10:07:34;102452.53;;;6.32;100.00
5996;BME280;3026;53.612;7.278;2022-11-30T10:10:13;102448.75;;;6.35;100.00
5996;BME280;3026;53.612;7.278;2022-11-30T10:12:48;102456.00;;;6.34;100.00
5996;BME280;3026;53.612;7.278;2022-11-30T10:15:30;102455.03;;;6.35;100.00
5996;BME280;3026;53.612;7.278;2022-11-30T10:18:06;102455.03;;;6.35;100.00
5996;BME280;3026;53.612;7.278;2022-11-30T10:20:50;102451.28;;;6.38;100.00
5996;BME280;3026;53.612;7.278;2022-11-30T10:23:40;102460.28;;;6.38;100.00
5996;BME280;3026;53.612;7.278;2022-11-30T10:26:14;102451.91;;;6.41;100.00
5996;BME280;3026;53.612;7.278;2022-11-30T10:28:48;102448.13;;;6.44;100.00
5996;BME280;3026;53.612;7.278;2022-11-30T10:31:17;102446.50;;;6.41;100.00
5996;BME280;3026;53.612;7.278;2022-11-30T10:33:46;102446.50;;;6.41;100.00
5996;BME280;3026;53.612;7.278;2022-11-30T10:36:19;102437.81;;;6.36;100.00
5996;BME280;3026;53.612;7.278;2022-11-30T10:38:53;102445.94;;;6.36;100.00
5996;BME280;3026;53.612;7.278;2022-11-30T10:41:25;102449.22;;;6.41;100.00
5996;BME280;3026;53.612;7.278;2022-11-30T10:43:58;102451.81;;;6.43;100.00
5996;BME280;3026;53.612;7.278;2022-11-30T10:46:28;102452.78;;;6.42;100.00
5996;BME280;3026;53.612;7.278;2022-11-30T10:48:58;102456.56;;;6.39;100.00
5996;BME280;3026;53.612;7.278;2022-11-30T10:51:27;102452.25;;;6.37;100.00
5996;BME280;3026;53.612;7.278;2022-11-30T10:53:56;102455.91;;;6.36;100.00
5996;BME280;3026;53.612;7.278;2022-11-30T10:56:25;102456.56;;;6.39;100.00
5996;BME280;3026;53.612;7.278;2022-11-30T10:58:57;102454.75;;;6.40;100.00
5996;BME280;3026;53.612;7.278;2022-11-30T11:01:31;102462.00;;;6.39;100.00
5996;BME280;3026;53.612;7.278;2022-11-30T11:04:13;102459.19;;;6.41;100.00
5996;BME280;3026;53.612;7.278;2022-11-30T11:06:43;102455.28;;;6.45;100.00
5996;BME280;3026;53.612;7.278;2022-11-30T11:09:34;102461.38;;;6.49;100.00
5996;BME280;3026;53.612;7.278;2022-11-30T11:12:05;102463.75;;;6.53;100.00
5996;BME280;3026;53.612;7.278;2022-11-30T11:14:32;102446.63;;;6.53;100.00
5996;BME280;3026;53.612;7.278;2022-11-30T11:17:01;102452.91;;;6.53;100.00
5996;BME280;3026;53.612;7.278;2022-11-30T11:19:37;102462.66;;;6.56;100.00
5996;BME280;3026;53.612;7.278;2022-11-30T11:22:12;102453.78;;;6.54;100.00
5996;BME280;3026;53.612;7.278;2022-11-30T11:24:41;102457.47;;;6.53;100.00
5996;BME280;3026;53.612;7.278;2022-11-30T11:27:18;102453.78;;;6.54;100.00
5996;BME280;3026;53.612;7.278;2022-11-30T11:29:59;102462.13;;;6.51;100.00
5996;BME280;3026;53.612;7.278;2022-11-30T11:32:26;102456.59;;;6.52;100.00
5996;BME280;3026;53.612;7.278;2022-11-30T11:34:55;102454.75;;;6.53;100.00
5996;BME280;3026;53.612;7.278;2022-11-30T11:37:23;102470.03;;;6.54;100.00
5996;BME280;3026;53.612;7.278;2022-11-30T11:40:02;102464.72;;;6.52;100.00
5996;BME280;3026;53.612;7.278;2022-11-30T11:42:34;102460.06;;;6.54;100.00
5996;BME280;3026;53.612;7.278;2022-11-30T11:45:04;102458.44;;;6.52;100.00
5996;BME280;3026;53.612;7.278;2022-11-30T11:47:37;102468.31;;;6.53;100.00
5996;BME280;3026;53.612;7.278;2022-11-30T11:50:22;102465.03;;;6.48;100.00
5996;BME280;3026;53.612;7.278;2022-11-30T11:53:16;102473.16;;;6.48;100.00
5996;BME280;3026;53.612;7.278;2022-11-30T11:55:51;102470.44;;;6.48;100.00
5996;BME280;3026;53.612;7.278;2022-11-30T11:58:27;102458.84;;;6.46;100.00
5996;BME280;3026;53.612;7.278;2022-11-30T12:01:00;102467.19;;;6.42;100.00
5996;BME280;3026;53.612;7.278;2022-11-30T12:03:33;102463.72;;;6.40;100.00
5996;BME280;3026;53.612;7.278;2022-11-30T12:06:06;102465.47;;;6.41;100.00
5996;BME280;3026;53.612;7.278;2022-11-30T12:08:40;102470.03;;;6.41;100.00
5996;BME280;3026;53.612;7.278;2022-11-30T12:11:13;102451.34;;;6.36;100.00
5996;BME280;3026;53.612;7.278;2022-11-30T12:13:44;102469.16;;;6.40;100.00
5996;BME280;3026;53.612;7.278;2022-11-30T12:16:31;102472.63;;;6.42;100.00
5996;BME280;3026;53.612;7.278;2022-11-30T12:19:06;102478.78;;;6.44;100.00
5996;BME280;3026;53.612;7.278;2022-11-30T12:21:46;102477.63;;;6.49;100.00
5996;BME280;3026;53.612;7.278;2022-11-30T12:24:33;102482.81;;;6.52;100.00
5996;BME280;3026;53.612;7.278;2022-11-30T12:27:11;102475.88;;;6.48;100.00
5996;BME280;3026;53.612;7.278;2022-11-30T12:29:48;102479.34;;;6.50;100.00
5996;BME280;3026;53.612;7.278;2022-11-30T12:32:26;102481.09;;;6.51;100.00
5996;BME280;3026;53.612;7.278;2022-11-30T12:35:04;102486.41;;;6.52;100.00
5996;BME280;3026;53.612;7.278;2022-11-30T12:37:44;102484.56;;;6.53;100.00
5996;BME280;3026;53.612;7.278;2022-11-30T12:40:23;102484.56;;;6.53;100.00
5996;BME280;3026;53.612;7.278;2022-11-30T12:42:57;102483.69;;;6.52;100.00
5996;BME280;3026;53.612;7.278;2022-11-30T12:45:32;102482.81;;;6.52;100.00
5996;BME280;3026;53.612;7.278;2022-11-30T12:48:08;102475.44;;;6.54;100.00
5996;BME280;3026;53.612;7.278;2022-11-30T12:50:51;102470.03;;;6.54;100.00
5996;BME280;3026;53.612;7.278;2022-11-30T12:53:25;102465.03;;;6.48;100.00
5996;BME280;3026;53.612;7.278;2022-11-30T12:56:04;102471.00;;;6.53;100.00
5996;BME280;3026;53.612;7.278;2022-11-30T12:58:40;102470.03;;;6.54;100.00
5996;BME280;3026;53.612;7.278;2022-11-30T13:01:22;102468.06;;;6.56;100.00
5996;BME280;3026;53.612;7.278;2022-11-30T13:03:58;102477.94;;;6.57;100.00
5996;BME280;3026;53.612;7.278;2022-11-30T13:06:31;102475.00;;;6.60;100.00
5996;BME280;3026;53.612;7.278;2022-11-30T13:09:02;102485.84;;;6.60;100.00
5996;BME280;3026;53.612;7.278;2022-11-30T13:11:35;102486.06;;;6.57;100.00
5996;BME280;3026;53.612;7.278;2022-11-30T13:14:04;102482.38;;;6.58;100.00
5996;BME280;3026;53.612;7.278;2022-11-30T13:16:33;102484.03;;;6.60;100.00
5996;BME280;3026;53.612;7.278;2022-11-30T13:19:13;102483.94;;;6.62;100.00
5996;BME280;3026;53.612;7.278;2022-11-30T13:21:50;102489.34;;;6.62;100.00
5996;BME280;3026;53.612;7.278;2022-11-30T13:24:23;102493.69;;;6.64;100.00